Portada
METAR-TAF:

METAR-TAF

Aeropuertos :

Aeropuerto de Alghero-Fertilia

Alguer, Italia

latitud: 40-38N, longitud: 008-17E, altitud: 23 m

Observación

El informe se hizo hace 24 minutos, a las 11:50 UTC
Viento 14 kt del noreste, variando entre norte-noreste y este
Temperatura 19°C
Humedad 37%
Presión 1018 hPa
Visibilidad 10 km o más
sin nubes por debajo de 1500 m y sin presencia de cumulonimbus.

METAR: LIEA 041150Z 05014KT 020V080 CAVOK 19/04 Q1018

Hora: 14:14 (12:14 UTC)

Pronóstico

El informe se hizo hace 1 hora y 14 minutos, a las 11:00 UTC
Pronóstico válido del 04 a las 12 UTC al 05 a las 12 UTC
Viento 10 kt del este-noreste
Visibilidad 10 km o más
sin nubes por debajo de 1500 m y sin presencia de cumulonimbus.

TAF: LIEA 041100Z 0412/0512 06010KT CAVOK

Observaciones y pronósticos meteorológicos de más de 4000 aeropuertos (mensajes METAR y TAF).

Los puntos amarillos y rojos representan las estaciones disponibles.

Ponga el ratón en el punto deseado para ver el nombre de la estación.

Haga clic para ver las observaciones y los pronósticos meteorológicos.

Para cambiar el mapa : haga clic en los botones verdes con una cruz de color negro para hacer un zoom, en el botón verde con un guión para alejar o en las flechas verdes para mapas adyacentes.


METAR-TAF: